createdAt,value
2019-04-01T00:00:15.333Z,51.53
2019-04-01T00:02:44.738Z,52.50
2019-04-01T00:05:14.425Z,50.67
2019-04-01T00:07:43.517Z,56.50
2019-04-01T00:10:12.616Z,53.23
2019-04-01T00:12:41.741Z,55.00
2019-04-01T00:15:10.815Z,50.00
2019-04-01T00:17:40.092Z,50.57
2019-04-01T00:20:09.214Z,57.57
2019-04-01T00:22:38.638Z,59.33
2019-04-01T00:25:07.759Z,61.20
2019-04-01T00:27:36.895Z,52.63
2019-04-01T00:30:06.314Z,57.93
2019-04-01T00:32:35.395Z,58.07
2019-04-01T00:35:04.600Z,51.43
2019-04-01T00:37:33.787Z,56.50
2019-04-01T00:40:02.965Z,57.87
2019-04-01T00:42:55.609Z,55.70
2019-04-01T00:45:25.627Z,55.20
2019-04-01T00:47:54.690Z,63.83
2019-04-01T00:50:23.738Z,59.57
2019-04-01T00:52:52.786Z,56.57
2019-04-01T00:55:21.838Z,55.50
2019-04-01T00:57:52.967Z,67.13
2019-04-01T01:00:22.379Z,66.57
2019-04-01T01:02:51.416Z,62.77
2019-04-01T01:05:20.653Z,62.60
2019-04-01T01:07:49.838Z,57.10
2019-04-01T01:10:19.102Z,62.07
2019-04-01T01:12:48.320Z,66.20
2019-04-01T01:15:17.541Z,59.03
2019-04-01T01:17:46.718Z,61.97
2019-04-01T01:20:16.034Z,66.33
2019-04-01T01:22:45.063Z,60.97
2019-04-01T01:25:14.495Z,60.03
2019-04-01T01:27:43.627Z,61.97
2019-04-01T01:30:13.249Z,62.37
2019-04-01T01:32:42.284Z,76.03
2019-04-01T01:35:11.359Z,62.70
2019-04-01T01:37:40.595Z,63.97
2019-04-01T01:40:09.753Z,65.20
2019-04-01T01:42:38.975Z,66.13
2019-04-01T01:45:08.069Z,75.30
2019-04-01T01:47:37.390Z,63.20
2019-04-01T01:50:06.969Z,62.57
2019-04-01T01:52:35.997Z,62.43
2019-04-01T01:55:05.189Z,60.90
2019-04-01T01:57:34.229Z,61.87
2019-04-01T02:00:03.509Z,68.90
2019-04-01T02:02:32.796Z,66.07
2019-04-01T02:05:02.069Z,71.93
2019-04-01T02:07:31.295Z,68.90
2019-04-01T02:10:00.505Z,64.83
2019-04-01T02:12:29.601Z,66.90
2019-04-01T02:14:58.773Z,70.57
2019-04-01T02:17:28.095Z,66.83
2019-04-01T02:19:57.209Z,62.80
2019-04-01T02:22:26.590Z,55.77
2019-04-01T02:24:55.718Z,65.47
2019-04-01T02:27:25.081Z,68.83
2019-04-01T02:29:54.148Z,75.27
2019-04-01T02:32:23.323Z,67.17
2019-04-01T02:34:52.576Z,63.23
2019-04-01T02:37:21.743Z,63.47
2019-04-01T02:39:51.135Z,65.90
2019-04-01T02:42:20.227Z,67.17
2019-04-01T02:44:49.470Z,61.60
2019-04-01T02:47:18.865Z,67.27
2019-04-01T02:49:48.104Z,58.87
2019-04-01T02:52:17.256Z,71.73
2019-04-01T02:54:46.372Z,67.93
2019-04-01T02:57:15.572Z,66.67
2019-04-01T02:59:44.792Z,65.57
2019-04-01T03:02:14.018Z,60.33
2019-04-01T03:04:43.285Z,61.30
2019-04-01T03:07:12.490Z,59.23
2019-04-01T03:09:41.865Z,63.93
2019-04-01T03:12:10.954Z,68.47
2019-04-01T03:14:40.172Z,63.73
2019-04-01T03:17:09.433Z,66.03
2019-04-01T03:19:38.831Z,62.00
2019-04-01T03:22:07.855Z,62.50
2019-04-01T03:24:37.056Z,56.17
2019-04-01T03:27:06.228Z,67.60
2019-04-01T03:29:35.393Z,68.33
2019-04-01T03:32:04.816Z,64.17
2019-04-01T03:34:33.941Z,65.00
2019-04-01T03:37:03.271Z,62.67
2019-04-01T03:39:32.340Z,61.43
2019-04-01T03:42:01.474Z,64.90
2019-04-01T03:44:30.872Z,62.30
2019-04-01T03:47:00.033Z,63.00
2019-04-01T03:49:29.322Z,62.57
2019-04-01T03:51:58.513Z,67.93
2019-04-01T03:54:27.699Z,62.50
2019-04-01T03:56:56.764Z,65.00
2019-04-01T03:59:26.147Z,66.70
2019-04-01T04:01:55.520Z,61.30
2019-04-01T04:04:24.566Z,56.77
2019-04-01T04:06:53.773Z,67.47
2019-04-01T04:09:23.204Z,69.53
2019-04-01T04:11:52.228Z,68.27
2019-04-01T04:14:21.469Z,60.63
2019-04-01T04:16:50.629Z,64.40
2019-04-01T04:19:19.909Z,57.50
2019-04-01T04:21:49.208Z,62.53
2019-04-01T04:24:18.336Z,65.47
2019-04-01T04:26:47.546Z,60.83
2019-04-01T04:29:16.839Z,66.77
2019-04-01T04:31:45.910Z,63.23
2019-04-01T04:34:15.307Z,67.00
2019-04-01T04:36:44.543Z,59.87
2019-04-01T04:39:13.685Z,53.43
2019-04-01T04:41:43.012Z,61.27
2019-04-01T04:44:12.118Z,59.30
2019-04-01T04:46:41.404Z,57.13
2019-04-01T04:49:10.472Z,55.43
2019-04-01T04:51:39.585Z,61.23
2019-04-01T04:54:08.602Z,55.60
2019-04-01T04:56:37.690Z,64.00
2019-04-01T04:59:06.744Z,61.53
2019-04-01T05:01:35.856Z,60.17
2019-04-01T05:04:04.869Z,65.00
2019-04-01T05:06:34.429Z,63.87
2019-04-01T05:09:05.842Z,59.47
2019-04-01T05:11:34.860Z,61.50
2019-04-01T05:14:03.893Z,65.07
2019-04-01T05:16:32.981Z,69.40
2019-04-01T05:19:02.186Z,57.90
2019-04-01T05:21:31.787Z,65.57
2019-04-01T05:24:01.858Z,68.40
2019-04-01T05:26:30.967Z,65.53
2019-04-01T05:29:01.431Z,54.87
2019-04-01T05:31:31.844Z,61.70
2019-04-01T05:34:02.511Z,58.17
2019-04-01T05:36:32.509Z,65.67
2019-04-01T05:39:01.920Z,65.73
2019-04-01T05:41:31.142Z,62.03
2019-04-01T05:44:02.234Z,58.70
2019-04-01T05:46:31.508Z,62.13
2019-04-01T05:49:00.694Z,56.73
2019-04-01T05:51:29.924Z,58.70
2019-04-01T05:53:59.057Z,67.03
2019-04-01T05:56:28.320Z,62.87
2019-04-01T05:58:57.671Z,59.20
2019-04-01T06:01:31.703Z,58.90
2019-04-01T06:04:00.958Z,54.87
2019-04-01T06:06:30.176Z,64.27
2019-04-01T06:08:59.271Z,57.23
2019-04-01T06:11:28.518Z,57.27
2019-04-01T06:13:57.861Z,58.07
2019-04-01T06:16:26.990Z,58.10
2019-04-01T06:18:56.315Z,56.30
2019-04-01T06:21:25.502Z,61.13
2019-04-01T06:23:54.842Z,57.70
2019-04-01T06:26:23.882Z,63.57
2019-04-01T06:28:53.149Z,53.30
2019-04-01T06:31:22.208Z,55.80
2019-04-01T06:33:51.558Z,56.00
2019-04-01T06:36:20.775Z,53.37
2019-04-01T06:38:50.030Z,58.17
2019-04-01T06:41:19.225Z,57.77
2019-04-01T06:43:48.450Z,54.40
2019-04-01T06:46:17.683Z,55.33
2019-04-01T06:48:46.806Z,56.40
2019-04-01T06:51:16.194Z,59.20
2019-04-01T06:53:45.218Z,56.83
2019-04-01T06:56:14.595Z,51.80
2019-04-01T06:58:43.767Z,57.47
2019-04-01T07:01:12.985Z,51.50
2019-04-01T07:03:42.371Z,55.13
2019-04-01T07:06:11.413Z,58.63
2019-04-01T07:08:40.964Z,61.77
2019-04-01T07:11:10.010Z,52.77
2019-04-01T07:13:40.220Z,47.20
2019-04-01T07:16:15.768Z,55.87
2019-04-01T07:18:40.600Z,56.17
2019-04-01T07:21:09.727Z,55.87
2019-04-01T07:23:39.061Z,57.57
2019-04-01T07:26:08.153Z,57.03
2019-04-01T07:28:37.305Z,55.13
2019-04-01T07:31:06.633Z,54.57
2019-04-01T07:33:35.982Z,54.43
2019-04-01T07:36:05.137Z,51.87
2019-04-01T07:38:34.332Z,62.13
2019-04-01T07:41:03.453Z,53.90
2019-04-01T07:43:32.684Z,54.77
2019-04-01T07:46:02.174Z,55.77
2019-04-01T07:48:31.600Z,53.10
2019-04-01T07:51:00.679Z,62.87
2019-04-01T07:53:29.753Z,61.87
2019-04-01T07:56:02.383Z,53.63
2019-04-01T07:58:30.071Z,54.30
2019-04-01T08:00:59.364Z,63.93
2019-04-01T08:03:28.586Z,52.17
2019-04-01T08:05:57.657Z,59.93
2019-04-01T08:08:26.977Z,56.47
2019-04-01T08:10:56.081Z,56.37
2019-04-01T08:13:25.315Z,52.60
2019-04-01T08:15:54.807Z,56.37
2019-04-01T08:18:23.940Z,53.00
2019-04-01T08:20:52.961Z,56.77
2019-04-01T08:23:22.228Z,57.23
2019-04-01T08:25:51.351Z,58.20
2019-04-01T08:28:23.677Z,50.40
2019-04-01T08:30:51.379Z,51.97
2019-04-01T08:33:20.504Z,52.03
2019-04-01T08:35:49.672Z,50.43
2019-04-01T08:38:18.686Z,56.83
2019-04-01T08:40:48.341Z,60.23
2019-04-01T08:43:17.448Z,50.80
2019-04-01T08:45:46.477Z,48.70
2019-04-01T08:48:15.545Z,57.30
2019-04-01T08:50:44.718Z,51.07
2019-04-01T08:53:13.846Z,47.50
2019-04-01T08:55:42.970Z,48.60
2019-04-01T08:58:12.350Z,49.33
2019-04-01T09:00:41.412Z,51.33
2019-04-01T09:03:10.778Z,47.23
2019-04-01T09:05:39.931Z,48.17
2019-04-01T09:08:09.035Z,49.90
2019-04-01T09:10:38.527Z,50.67
2019-04-01T09:13:07.626Z,49.27
2019-04-01T09:15:36.978Z,44.70
2019-04-01T09:18:06.047Z,41.43
2019-04-01T09:20:35.207Z,48.80
2019-04-01T09:23:04.545Z,45.73
2019-04-01T09:25:33.663Z,52.57
2019-04-01T09:28:02.920Z,47.00
2019-04-01T09:30:32.106Z,46.87
2019-04-01T09:33:01.311Z,45.40
2019-04-01T09:35:30.557Z,49.73
2019-04-01T09:37:59.769Z,47.23
2019-04-01T09:40:29.160Z,40.77
2019-04-01T09:42:58.204Z,45.40
2019-04-01T09:45:27.448Z,47.13
2019-04-01T09:47:56.776Z,45.07
2019-04-01T09:50:25.989Z,41.13
2019-04-01T09:52:55.178Z,41.87
2019-04-01T09:55:24.495Z,43.27
2019-04-01T09:57:53.588Z,45.33
2019-04-01T10:00:22.989Z,44.70
2019-04-01T10:02:52.143Z,44.60
2019-04-01T10:05:21.391Z,43.37
2019-04-01T10:07:50.662Z,41.07
2019-04-01T10:10:19.874Z,43.83
2019-04-01T10:12:48.931Z,44.77
2019-04-01T10:15:18.140Z,41.80
2019-04-01T10:17:47.451Z,40.60
2019-04-01T10:20:16.677Z,44.93
2019-04-01T10:22:45.791Z,45.80
2019-04-01T10:25:15.144Z,40.70
2019-04-01T10:27:44.282Z,42.13
2019-04-01T10:30:13.632Z,42.03
2019-04-01T10:32:42.785Z,42.40
2019-04-01T10:35:13.813Z,46.30
2019-04-01T10:37:43.066Z,43.40
2019-04-01T10:40:12.297Z,39.90
2019-04-01T10:42:41.627Z,46.33
2019-04-01T10:45:11.023Z,45.10
2019-04-01T10:47:40.178Z,42.07
2019-04-01T10:50:09.582Z,42.93
2019-04-01T10:52:38.647Z,43.57
2019-04-01T10:55:07.987Z,42.03
2019-04-01T10:57:37.104Z,42.83
2019-04-01T11:00:07.486Z,44.03
2019-04-01T11:02:36.607Z,42.20
2019-04-01T11:05:06.002Z,44.50
2019-04-01T11:07:35.017Z,43.17
2019-04-01T11:10:04.546Z,46.70
2019-04-01T11:12:33.631Z,40.90
2019-04-01T11:15:02.681Z,44.03
2019-04-01T11:17:31.784Z,42.20
2019-04-01T11:20:00.887Z,45.60
2019-04-01T11:22:30.003Z,46.80
2019-04-01T11:24:59.304Z,45.30
2019-04-01T11:27:28.582Z,41.10
2019-04-01T11:29:57.785Z,41.60
2019-04-01T11:32:27.025Z,46.57
2019-04-01T11:34:56.431Z,48.07
2019-04-01T11:37:25.667Z,39.03
2019-04-01T11:39:54.691Z,41.67
2019-04-01T11:42:23.747Z,44.87
2019-04-01T11:44:53.135Z,40.17
2019-04-01T11:47:22.541Z,38.30
2019-04-01T11:49:51.716Z,42.20
2019-04-01T11:52:20.850Z,46.30
2019-04-01T11:54:50.188Z,38.30
2019-04-01T11:57:19.243Z,37.50
2019-04-01T11:59:48.358Z,39.10
2019-04-01T12:02:17.703Z,38.73
2019-04-01T12:04:46.804Z,45.33
2019-04-01T12:07:16.073Z,34.20
2019-04-01T12:09:45.359Z,40.93
2019-04-01T12:12:23.609Z,40.80
2019-04-01T12:14:45.248Z,41.43
2019-04-01T12:17:14.308Z,37.53
2019-04-01T12:19:44.627Z,41.17
2019-04-01T12:22:13.762Z,37.43
2019-04-01T12:24:42.842Z,33.20
2019-04-01T12:27:11.876Z,39.93
2019-04-01T12:29:41.086Z,35.20
2019-04-01T12:32:10.176Z,43.20
2019-04-01T12:34:42.185Z,35.60
2019-04-01T12:37:10.845Z,36.07
2019-04-01T12:39:41.062Z,35.17
2019-04-01T12:42:10.279Z,37.17
2019-04-01T12:44:39.557Z,40.40
2019-04-01T12:47:08.764Z,36.70
2019-04-01T12:49:38.069Z,34.20
2019-04-01T12:52:07.185Z,41.00
2019-04-01T12:54:36.296Z,34.50
2019-04-01T12:57:05.397Z,33.97
2019-04-01T12:59:34.483Z,37.07
2019-04-01T13:02:04.819Z,35.33
2019-04-01T13:04:36.100Z,31.33
2019-04-01T13:07:05.291Z,40.50
2019-04-01T13:09:34.590Z,33.33
2019-04-01T13:12:04.042Z,32.97
2019-04-01T13:14:33.151Z,36.87
2019-04-01T13:17:02.249Z,35.50
2019-04-01T13:19:31.343Z,35.87
2019-04-01T13:22:00.458Z,31.90
2019-04-01T13:24:29.718Z,34.63
2019-04-01T13:27:00.364Z,29.83
2019-04-01T13:29:30.275Z,36.47
2019-04-01T13:32:00.695Z,35.07
2019-04-01T13:34:30.501Z,33.47
2019-04-01T13:36:59.868Z,32.73
2019-04-01T13:39:28.954Z,32.43
2019-04-01T13:41:58.230Z,33.20
2019-04-01T13:44:36.638Z,35.63
2019-04-01T13:46:58.207Z,34.47
2019-04-01T13:49:27.407Z,32.37
2019-04-01T13:51:56.639Z,36.13
2019-04-01T13:54:25.691Z,33.40
2019-04-01T13:56:54.781Z,33.57
2019-04-01T13:59:24.230Z,40.00
2019-04-01T14:01:54.334Z,34.50
2019-04-01T14:04:24.255Z,38.10
2019-04-01T14:06:53.356Z,35.63
2019-04-01T14:09:22.994Z,33.90
2019-04-01T14:11:52.062Z,33.77
2019-04-01T14:14:21.188Z,30.13
2019-04-01T14:16:50.256Z,32.40
2019-04-01T14:19:20.004Z,31.30
2019-04-01T14:21:50.052Z,35.20
2019-04-01T14:24:19.181Z,32.73
2019-04-01T14:26:48.435Z,34.33
2019-04-01T14:29:17.573Z,32.50
2019-04-01T14:31:46.793Z,36.67
2019-04-01T14:34:22.831Z,32.33
2019-04-01T14:36:46.796Z,41.70
2019-04-01T14:39:16.197Z,34.87
2019-04-01T14:41:45.397Z,32.60
2019-04-01T14:44:14.567Z,35.40
2019-04-01T14:46:43.829Z,31.40
2019-04-01T14:49:12.997Z,30.50
2019-04-01T14:51:42.609Z,32.67
2019-04-01T14:54:11.645Z,37.67
2019-04-01T14:56:40.706Z,35.40
2019-04-01T14:59:09.769Z,32.70
2019-04-01T15:01:39.108Z,32.90
2019-04-01T15:04:08.465Z,32.73
2019-04-01T15:06:37.552Z,32.77
2019-04-01T15:09:08.455Z,30.07
2019-04-01T15:11:37.874Z,32.03
2019-04-01T15:14:08.570Z,31.87
2019-04-01T15:16:37.703Z,31.50
2019-04-01T15:19:06.828Z,31.13
2019-04-01T15:21:36.123Z,34.60
2019-04-01T15:24:05.323Z,32.67
2019-04-01T15:26:34.403Z,32.90
2019-04-01T15:29:03.453Z,31.80
2019-04-01T15:31:32.801Z,33.53
2019-04-01T15:34:01.995Z,31.10
2019-04-01T15:36:31.216Z,31.63
2019-04-01T15:39:00.308Z,29.37
2019-04-01T15:41:29.498Z,38.67
2019-04-01T15:43:59.168Z,32.77
2019-04-01T15:46:28.257Z,30.10
2019-04-01T15:48:57.288Z,37.50
2019-04-01T15:51:26.672Z,30.13
2019-04-01T15:53:55.790Z,30.33
2019-04-01T15:56:25.014Z,34.03
2019-04-01T15:58:54.252Z,30.90
2019-04-01T16:01:23.368Z,30.43
2019-04-01T16:03:52.698Z,31.90
2019-04-01T16:06:21.790Z,33.60
2019-04-01T16:08:51.128Z,32.40
2019-04-01T16:11:20.400Z,37.93
2019-04-01T16:13:49.637Z,29.93
2019-04-01T16:16:18.874Z,28.60
2019-04-01T16:18:48.000Z,31.03
2019-04-01T16:21:17.226Z,31.47
2019-04-01T16:23:47.300Z,31.57
2019-04-01T16:26:16.614Z,29.00
2019-04-01T16:28:45.739Z,33.70
2019-04-01T16:31:15.045Z,31.67
2019-04-01T16:33:44.319Z,31.67
2019-04-01T16:36:13.514Z,32.17
2019-04-01T16:38:42.789Z,25.57
2019-04-01T16:41:11.858Z,28.53
2019-04-01T16:43:41.090Z,27.80
2019-04-01T16:46:12.116Z,30.87
2019-04-01T16:48:41.443Z,24.87
2019-04-01T16:51:10.764Z,27.60
2019-04-01T16:53:39.966Z,25.30
2019-04-01T16:56:09.228Z,25.70
2019-04-01T16:58:38.443Z,25.40
2019-04-01T17:01:09.465Z,26.23
2019-04-01T17:03:38.973Z,26.80
2019-04-01T17:06:08.154Z,24.30
2019-04-01T17:08:39.157Z,26.37
2019-04-01T17:11:08.626Z,24.83
2019-04-01T17:13:37.766Z,25.13
2019-04-01T17:16:07.120Z,23.97
2019-04-01T17:18:37.059Z,24.83
2019-04-01T17:21:06.623Z,26.83
2019-04-01T17:23:35.875Z,25.83
2019-04-01T17:26:05.343Z,27.33
2019-04-01T17:28:34.948Z,24.77
2019-04-01T17:31:04.201Z,24.07
2019-04-01T17:33:33.620Z,22.60
2019-04-01T17:36:02.824Z,26.40
2019-04-01T17:38:31.988Z,23.37
2019-04-01T17:41:01.494Z,26.67
2019-04-01T17:43:30.804Z,27.13
2019-04-01T17:45:59.938Z,25.13
2019-04-01T17:48:29.029Z,23.80
2019-04-01T17:50:58.407Z,25.23
2019-04-01T17:53:27.443Z,31.43
2019-04-01T17:55:56.693Z,27.13
2019-04-01T17:58:25.918Z,25.67
2019-04-01T18:00:57.054Z,24.00
2019-04-01T18:03:26.205Z,27.20
2019-04-01T18:05:55.652Z,25.80
2019-04-01T18:08:24.951Z,25.63
2019-04-01T18:10:54.136Z,29.53
2019-04-01T18:13:23.230Z,27.20
2019-04-01T18:15:57.180Z,21.47
2019-04-01T18:18:27.115Z,23.63
2019-04-01T18:20:56.266Z,27.13
2019-04-01T18:23:26.435Z,31.20
2019-04-01T18:25:55.999Z,26.43
2019-04-01T18:28:25.376Z,21.00
2019-04-01T18:30:54.941Z,26.77
2019-04-01T18:33:24.611Z,28.17
2019-04-01T18:35:54.354Z,21.93
2019-04-01T18:38:24.136Z,26.40
2019-04-01T18:40:53.602Z,23.73
2019-04-01T18:43:22.709Z,20.97
2019-04-01T18:45:52.024Z,28.63
2019-04-01T18:48:21.193Z,23.30
2019-04-01T18:50:50.267Z,26.03
2019-04-01T18:53:19.440Z,22.20
2019-04-01T18:55:48.719Z,22.10
2019-04-01T18:58:17.829Z,21.87
2019-04-01T19:00:47.545Z,22.37
2019-04-01T19:03:17.173Z,25.30
2019-04-01T19:05:47.069Z,23.10
2019-04-01T19:08:16.524Z,24.20
2019-04-01T19:10:45.900Z,23.73
2019-04-01T19:13:23.732Z,24.77
2019-04-01T19:15:54.338Z,26.50
2019-04-01T19:18:23.738Z,22.30
2019-04-01T19:20:56.890Z,23.20
2019-04-01T19:23:23.945Z,24.63
2019-04-01T19:25:53.055Z,23.57
2019-04-01T19:28:23.043Z,23.97
2019-04-01T19:30:52.746Z,25.57
2019-04-01T19:33:22.681Z,24.27
2019-04-01T19:35:51.842Z,26.53
2019-04-01T19:38:21.554Z,21.93
2019-04-01T19:40:52.164Z,24.60
2019-04-01T19:43:21.603Z,26.17
2019-04-01T19:45:50.924Z,22.97
2019-04-01T19:48:20.126Z,22.97
2019-04-01T19:50:49.445Z,28.20
2019-04-01T19:53:18.551Z,24.17
2019-04-01T19:55:48.632Z,20.97
2019-04-01T19:58:17.727Z,22.73
2019-04-01T20:00:46.907Z,23.70
2019-04-01T20:03:15.974Z,24.00
2019-04-01T20:05:45.162Z,24.77
2019-04-01T20:08:16.151Z,22.60
2019-04-01T20:10:46.208Z,23.63
2019-04-01T20:13:15.776Z,24.53
2019-04-01T20:15:44.950Z,33.30
2019-04-01T20:18:14.145Z,28.73
2019-04-01T20:20:43.354Z,30.53
2019-04-01T20:23:12.780Z,29.47
2019-04-01T20:25:41.882Z,28.53
2019-04-01T20:28:11.079Z,28.80
2019-04-01T20:30:42.574Z,34.00
2019-04-01T20:33:17.773Z,28.80
2019-04-01T20:35:42.251Z,26.43
2019-04-01T20:38:11.312Z,30.27
2019-04-01T20:40:40.367Z,27.73
2019-04-01T20:43:09.403Z,25.00
2019-04-01T20:45:38.656Z,27.97
2019-04-01T20:48:07.884Z,36.33
2019-04-01T20:50:37.206Z,26.43
2019-04-01T20:53:06.322Z,25.40
2019-04-01T20:55:47.681Z,26.93
2019-04-01T20:58:06.699Z,31.53
2019-04-01T21:00:35.862Z,26.63
2019-04-01T21:03:05.056Z,25.83
2019-04-01T21:05:34.316Z,28.50
2019-04-01T21:08:03.462Z,29.90
2019-04-01T21:10:32.832Z,24.83
2019-04-01T21:13:01.963Z,27.03
2019-04-01T21:15:31.192Z,30.00
2019-04-01T21:18:00.534Z,32.07
2019-04-01T21:20:29.637Z,33.00
2019-04-01T21:22:58.777Z,29.67
2019-04-01T21:25:27.977Z,31.27
2019-04-01T21:27:57.410Z,31.00
2019-04-01T21:30:26.471Z,31.00
2019-04-01T21:32:55.859Z,32.90
2019-04-01T21:35:25.035Z,29.67
2019-04-01T21:37:54.206Z,32.50
2019-04-01T21:40:23.301Z,31.70
2019-04-01T21:42:52.593Z,32.30
2019-04-01T21:45:21.863Z,30.27
2019-04-01T21:47:50.992Z,40.10
2019-04-01T21:50:20.134Z,32.30
2019-04-01T21:52:49.385Z,31.50
2019-04-01T21:55:19.176Z,44.17
2019-04-01T21:57:48.319Z,39.23
2019-04-01T22:00:27.590Z,36.00
2019-04-01T22:02:56.675Z,35.30
2019-04-01T22:05:25.745Z,31.00
2019-04-01T22:07:54.774Z,32.63
2019-04-01T22:10:23.889Z,32.70
2019-04-01T22:12:53.018Z,37.27
2019-04-01T22:15:23.005Z,30.70
2019-04-01T22:17:52.380Z,32.50
2019-04-01T22:20:21.622Z,31.57
2019-04-01T22:22:50.872Z,30.80
2019-04-01T22:25:20.000Z,31.07
2019-04-01T22:27:49.289Z,32.53
2019-04-01T22:30:18.611Z,30.97
2019-04-01T22:32:47.677Z,31.87
2019-04-01T22:35:17.042Z,32.90
2019-04-01T22:37:46.188Z,34.83
2019-04-01T22:40:15.719Z,37.67
2019-04-01T22:42:44.897Z,34.70
2019-04-01T22:45:13.926Z,37.10
2019-04-01T22:47:43.199Z,34.57
2019-04-01T22:50:12.334Z,35.50
2019-04-01T22:52:42.311Z,33.57
2019-04-01T22:55:11.652Z,33.60
2019-04-01T22:57:40.990Z,29.67
2019-04-01T23:00:10.109Z,37.00
2019-04-01T23:02:39.382Z,36.93
2019-04-01T23:05:08.957Z,36.10
2019-04-01T23:07:38.034Z,36.20
2019-04-01T23:10:07.216Z,34.80
2019-04-01T23:12:36.295Z,36.83
2019-04-01T23:15:06.797Z,31.83
2019-04-01T23:17:36.099Z,35.37
2019-04-01T23:20:05.846Z,40.00
2019-04-01T23:22:35.159Z,35.97
2019-04-01T23:25:04.803Z,33.17
2019-04-01T23:27:33.889Z,37.93
2019-04-01T23:30:04.578Z,36.40
2019-04-01T23:32:33.907Z,37.40
2019-04-01T23:35:03.189Z,35.17
2019-04-01T23:37:32.387Z,36.50
2019-04-01T23:40:02.385Z,36.60
2019-04-01T23:42:32.883Z,32.63
2019-04-01T23:45:01.974Z,32.53
2019-04-01T23:47:31.290Z,41.63
2019-04-01T23:50:00.433Z,35.13
2019-04-01T23:52:29.525Z,36.87
2019-04-01T23:54:59.230Z,34.87
2019-04-01T23:57:29.112Z,35.83
2019-04-01T23:59:58.301Z,34.10
